Time;durP1;ratioP1;P1;durP2;ratioP2;P2;SDS_P1;SDS_P2;PMS_P1;PMS_P2;Temp;Humidity;BMP_temperature;BMP_pressure;BME280_temperature;BME280_humidity;BME280_pressure;Samples;Min_cycle;Max_cycle;Signal;HPM_P1;HPM_P2
2021/10/07 00:00:43;;;;;;;;;;;12.00;99.90;;;;;;5050295;28;20429;-76
2021/10/07 00:03:08;;;;;;;;;;;12.00;99.90;;;;;;5035328;28;19913;-76
2021/10/07 00:05:34;;;;;;;;;;;11.90;99.90;;;;;;5044881;28;19959;-76
2021/10/07 00:07:59;;;;;;;;;;;11.90;99.90;;;;;;5052228;28;19948;-75
2021/10/07 00:10:26;;;;;;;;;;;11.90;99.90;;;;;;5035664;28;19917;-76
2021/10/07 00:12:51;;;;;;;;;;;12.00;99.90;;;;;;5036084;28;20296;-76
2021/10/07 00:15:17;;;;;;;;;;;11.90;99.90;;;;;;5034415;28;19967;-76
2021/10/07 00:17:42;;;;;;;;;;;11.90;99.90;;;;;;5034992;28;20382;-75
2021/10/07 00:20:10;;;;;;;;;;;11.90;99.90;;;;;;5040308;28;19925;-75
2021/10/07 00:22:38;;;;;;;;;;;11.80;99.90;;;;;;5045268;28;19913;-76
2021/10/07 00:25:03;;;;;;;;;;;11.80;99.90;;;;;;5043835;28;19921;-76
2021/10/07 00:27:29;;;;;;;;;;;11.80;99.90;;;;;;5047208;28;19916;-75
2021/10/07 00:30:02;;;;;;;;;;;11.70;99.90;;;;;;5046515;28;19917;-76
2021/10/07 00:32:33;;;;;;;;;;;11.70;99.90;;;;;;5044786;28;20285;-76
2021/10/07 00:40:11;;;;;;;;;;;11.70;99.90;;;;;;5042233;28;19924;-75
2021/10/07 00:42:37;;;;;;;;;;;11.70;99.90;;;;;;5035091;28;20389;-76
2021/10/07 00:45:03;;;;;;;;;;;11.60;99.90;;;;;;5034140;28;19975;-76
2021/10/07 00:47:28;;;;;;;;;;;11.60;99.90;;;;;;5035168;28;19913;-75
2021/10/07 00:49:54;;;;;;;;;;;11.60;99.90;;;;;;5039228;28;19939;-76
2021/10/07 00:52:20;;;;;;;;;;;11.50;99.90;;;;;;5049777;28;19909;-76
2021/10/07 00:54:50;;;;;;;;;;;11.50;99.90;;;;;;5033632;28;20007;-76
2021/10/07 00:57:19;;;;;;;;;;;11.50;99.90;;;;;;5034892;28;19909;-75
2021/10/07 00:59:45;;;;;;;;;;;11.50;99.90;;;;;;5035094;28;19909;-76
2021/10/07 01:02:11;;;;;;;;;;;11.50;99.90;;;;;;5034794;28;19960;-75
2021/10/07 01:04:36;;;;;;;;;;;11.40;99.90;;;;;;5041219;28;19909;-76
2021/10/07 01:07:03;;;;;;;;;;;11.40;99.90;;;;;;5038429;28;19920;-75
2021/10/07 01:09:29;;;;;;;;;;;11.40;99.90;;;;;;5034526;28;19913;-76
2021/10/07 01:11:55;;;;;;;;;;;11.40;99.90;;;;;;5033092;28;19909;-76
2021/10/07 01:14:43;;;;;;;;;;;11.40;99.90;;;;;;5034684;28;19913;-75
2021/10/07 01:17:09;;;;;;;;;;;11.40;99.90;;;;;;5034199;28;19985;-76
2021/10/07 01:19:36;;;;;;;;;;;11.40;99.90;;;;;;5033476;28;19909;-75
2021/10/07 01:22:02;;;;;;;;;;;11.30;99.90;;;;;;5033109;28;20055;-75
2021/10/07 01:24:27;;;;;;;;;;;11.30;99.90;;;;;;5033454;28;20382;-76
2021/10/07 01:26:53;;;;;;;;;;;11.30;99.90;;;;;;5041884;28;19976;-76
2021/10/07 01:29:18;;;;;;;;;;;11.30;99.90;;;;;;5053975;28;20273;-75
2021/10/07 01:31:44;;;;;;;;;;;11.30;99.90;;;;;;5053342;28;19909;-76
2021/10/07 01:34:09;;;;;;;;;;;11.20;99.90;;;;;;5049007;28;20006;-76
2021/10/07 01:36:35;;;;;;;;;;;11.20;99.90;;;;;;5035474;28;19917;-76
2021/10/07 01:39:00;;;;;;;;;;;11.20;99.90;;;;;;5036713;28;19913;-76
2021/10/07 01:41:26;;;;;;;;;;;11.20;99.90;;;;;;5049641;28;19909;-76
2021/10/07 01:43:54;;;;;;;;;;;11.20;99.90;;;;;;5055945;28;19932;-76
2021/10/07 01:46:20;;;;;;;;;;;11.20;99.90;;;;;;5067032;28;19901;-76
2021/10/07 01:48:45;;;;;;;;;;;11.20;99.90;;;;;;5062926;28;19924;-76
2021/10/07 01:51:11;;;;;;;;;;;11.20;99.90;;;;;;5056162;28;19913;-77
2021/10/07 01:53:36;;;;;;;;;;;11.20;99.90;;;;;;5076020;28;19901;-77
2021/10/07 01:56:03;;;;;;;;;;;11.20;99.90;;;;;;5063642;28;19913;-76
2021/10/07 01:58:28;;;;;;;;;;;11.20;99.90;;;;;;5077851;28;19936;-77
2021/10/07 02:00:54;;;;;;;;;;;11.20;99.90;;;;;;5076158;28;19900;-76
2021/10/07 02:03:20;;;;;;;;;;;11.20;99.90;;;;;;5075932;28;19908;-76
2021/10/07 02:05:45;;;;;;;;;;;11.20;99.90;;;;;;5057333;28;19927;-77
2021/10/07 02:08:11;;;;;;;;;;;11.10;99.90;;;;;;5074569;28;19905;-75
2021/10/07 02:10:36;;;;;;;;;;;11.10;99.90;;;;;;5058504;28;19944;-76
2021/10/07 02:13:02;;;;;;;;;;;11.10;99.90;;;;;;5058404;28;19902;-75
2021/10/07 02:15:27;;;;;;;;;;;11.10;99.90;;;;;;5067012;28;19901;-76
2021/10/07 02:17:53;;;;;;;;;;;11.10;99.90;;;;;;5078141;28;19904;-75
2021/10/07 02:20:18;;;;;;;;;;;11.10;99.90;;;;;;5077034;28;19896;-75
2021/10/07 02:22:44;;;;;;;;;;;11.10;99.90;;;;;;5078097;28;19919;-76
2021/10/07 02:25:10;;;;;;;;;;;11.10;99.90;;;;;;5077042;28;19901;-75
2021/10/07 02:27:36;;;;;;;;;;;11.20;99.90;;;;;;5077562;28;19932;-76
2021/10/07 02:30:04;;;;;;;;;;;11.20;99.90;;;;;;5065457;28;19920;-75
2021/10/07 02:32:29;;;;;;;;;;;11.20;99.90;;;;;;5053983;28;21220;-75
2021/10/07 02:34:54;;;;;;;;;;;11.20;99.90;;;;;;5050306;28;19939;-74
2021/10/07 02:37:20;;;;;;;;;;;11.30;99.90;;;;;;5056242;28;19920;-75
2021/10/07 02:39:46;;;;;;;;;;;11.30;99.90;;;;;;5055109;28;19913;-75
2021/10/07 02:42:11;;;;;;;;;;;11.40;99.90;;;;;;5035606;28;19917;-75
2021/10/07 02:44:37;;;;;;;;;;;11.40;99.90;;;;;;5034968;28;19964;-75
2021/10/07 02:47:02;;;;;;;;;;;11.40;99.90;;;;;;5035149;28;19913;-75
2021/10/07 02:49:28;;;;;;;;;;;11.40;99.90;;;;;;5033994;28;19924;-75
2021/10/07 02:51:54;;;;;;;;;;;11.40;99.90;;;;;;5034899;28;19982;-75
2021/10/07 02:54:19;;;;;;;;;;;11.40;99.90;;;;;;5045594;28;19913;-75
2021/10/07 02:56:45;;;;;;;;;;;11.40;99.90;;;;;;5039528;28;19999;-75
2021/10/07 02:59:10;;;;;;;;;;;11.40;99.90;;;;;;5043777;28;19939;-75
2021/10/07 03:01:36;;;;;;;;;;;11.40;99.90;;;;;;5042374;28;19912;-75
2021/10/07 03:04:01;;;;;;;;;;;11.30;99.90;;;;;;5050528;28;19964;-75
2021/10/07 03:06:27;;;;;;;;;;;11.30;99.90;;;;;;5045474;28;19916;-75
2021/10/07 03:08:52;;;;;;;;;;;11.30;99.90;;;;;;5038988;28;20369;-75
2021/10/07 03:11:17;;;;;;;;;;;11.30;99.90;;;;;;5049030;28;19913;-75
2021/10/07 03:13:43;;;;;;;;;;;11.30;99.90;;;;;;5037402;28;20000;-76
2021/10/07 03:16:08;;;;;;;;;;;11.30;99.90;;;;;;5033160;28;20333;-76
2021/10/07 03:18:34;;;;;;;;;;;11.30;99.90;;;;;;5033083;28;19957;-75
2021/10/07 03:20:59;;;;;;;;;;;11.30;99.90;;;;;;5032686;28;19913;-76
2021/10/07 03:23:25;;;;;;;;;;;11.30;99.90;;;;;;5045351;28;20008;-75
2021/10/07 03:25:50;;;;;;;;;;;11.40;99.90;;;;;;5051435;28;20007;-76
2021/10/07 03:28:16;;;;;;;;;;;11.40;99.90;;;;;;5052537;28;19927;-75
2021/10/07 03:30:41;;;;;;;;;;;11.40;99.90;;;;;;5043615;28;19924;-76
2021/10/07 03:33:08;;;;;;;;;;;11.40;99.90;;;;;;5031510;28;19999;-75
2021/10/07 03:35:33;;;;;;;;;;;11.40;99.90;;;;;;5032697;28;19909;-76
2021/10/07 03:37:59;;;;;;;;;;;11.40;99.90;;;;;;5031415;28;19909;-75
2021/10/07 03:40:26;;;;;;;;;;;11.30;99.90;;;;;;5051873;28;19913;-75
2021/10/07 03:42:52;;;;;;;;;;;11.30;99.90;;;;;;5056306;28;19909;-75
2021/10/07 03:45:17;;;;;;;;;;;11.30;99.90;;;;;;5056119;28;19913;-75
2021/10/07 03:47:43;;;;;;;;;;;11.30;99.90;;;;;;5056146;28;19909;-75
2021/10/07 03:50:09;;;;;;;;;;;11.30;99.90;;;;;;5056028;28;20262;-75
2021/10/07 03:52:34;;;;;;;;;;;11.30;99.90;;;;;;5056018;28;20003;-75
2021/10/07 03:55:00;;;;;;;;;;;11.20;99.90;;;;;;5055265;28;19921;-76
2021/10/07 03:57:26;;;;;;;;;;;11.20;99.90;;;;;;5056016;28;19909;-75
2021/10/07 03:59:52;;;;;;;;;;;11.20;99.90;;;;;;5056046;28;19909;-75
2021/10/07 04:02:18;;;;;;;;;;;11.20;99.90;;;;;;5054056;28;19909;-75
2021/10/07 04:04:43;;;;;;;;;;;11.20;99.90;;;;;;5045676;28;20281;-75
2021/10/07 04:07:09;;;;;;;;;;;11.20;99.90;;;;;;5034564;28;20400;-75
2021/10/07 04:09:34;;;;;;;;;;;11.20;99.90;;;;;;5043619;28;20374;-75
2021/10/07 04:12:00;;;;;;;;;;;11.20;99.90;;;;;;5035524;28;19924;-75
2021/10/07 04:14:25;;;;;;;;;;;11.20;99.90;;;;;;5035708;28;20289;-75
2021/10/07 04:16:51;;;;;;;;;;;11.20;99.90;;;;;;5050545;28;19916;-75
2021/10/07 04:19:19;;;;;;;;;;;11.20;99.90;;;;;;5038195;28;19919;-75
2021/10/07 04:21:45;;;;;;;;;;;11.10;99.90;;;;;;5035917;28;19921;-75
2021/10/07 04:24:10;;;;;;;;;;;11.10;99.90;;;;;;5035743;28;19913;-75
2021/10/07 04:26:36;;;;;;;;;;;11.20;99.90;;;;;;5033937;28;19913;-75
2021/10/07 04:29:01;;;;;;;;;;;11.10;99.90;;;;;;5035305;28;20373;-75
2021/10/07 04:31:27;;;;;;;;;;;11.10;99.90;;;;;;5042740;28;19908;-75
2021/10/07 04:33:52;;;;;;;;;;;11.10;99.90;;;;;;5053757;28;19908;-76
2021/10/07 04:36:18;;;;;;;;;;;11.10;99.90;;;;;;5033893;28;19967;-76
2021/10/07 04:38:43;;;;;;;;;;;11.10;99.90;;;;;;5035227;28;19955;-75
2021/10/07 04:41:09;;;;;;;;;;;11.10;99.90;;;;;;5033977;28;19909;-75
2021/10/07 04:43:34;;;;;;;;;;;11.10;99.90;;;;;;5033818;28;19963;-75
2021/10/07 04:46:00;;;;;;;;;;;11.10;99.90;;;;;;5033858;28;19945;-75
2021/10/07 04:48:25;;;;;;;;;;;11.10;99.90;;;;;;5046231;28;19916;-75
2021/10/07 04:50:51;;;;;;;;;;;11.10;99.90;;;;;;5054037;28;19969;-75
2021/10/07 04:53:16;;;;;;;;;;;11.10;99.90;;;;;;5054881;28;19909;-75
2021/10/07 04:55:42;;;;;;;;;;;11.10;99.90;;;;;;5053435;28;19909;-75
2021/10/07 04:58:07;;;;;;;;;;;11.10;99.90;;;;;;5042385;28;20369;-74
2021/10/07 05:00:33;;;;;;;;;;;11.10;99.90;;;;;;5033417;28;19913;-74
2021/10/07 05:02:58;;;;;;;;;;;11.10;99.90;;;;;;5033447;28;19917;-74
2021/10/07 05:05:24;;;;;;;;;;;11.10;99.90;;;;;;5035069;28;19987;-75
2021/10/07 05:07:50;;;;;;;;;;;11.10;99.90;;;;;;5053019;28;19921;-75
2021/10/07 05:10:15;;;;;;;;;;;11.10;99.90;;;;;;5040082;28;20373;-75
2021/10/07 05:12:41;;;;;;;;;;;11.10;99.90;;;;;;5034667;28;19915;-75
2021/10/07 05:15:08;;;;;;;;;;;11.10;99.90;;;;;;5034944;28;19909;-75
2021/10/07 05:17:34;;;;;;;;;;;11.10;99.90;;;;;;5034660;28;19913;-75
2021/10/07 05:19:59;;;;;;;;;;;11.10;99.90;;;;;;5034939;28;20004;-76
2021/10/07 05:22:24;;;;;;;;;;;11.20;99.90;;;;;;5034500;28;19952;-75
2021/10/07 05:24:50;;;;;;;;;;;11.20;99.90;;;;;;5041028;28;19917;-75
2021/10/07 05:27:15;;;;;;;;;;;11.30;99.90;;;;;;5037097;28;20370;-75
2021/10/07 05:29:41;;;;;;;;;;;11.30;99.90;;;;;;5035326;28;19917;-75
2021/10/07 05:32:06;;;;;;;;;;;11.30;99.90;;;;;;5037101;28;19967;-75
2021/10/07 05:34:32;;;;;;;;;;;11.30;99.90;;;;;;5048679;28;19920;-75
2021/10/07 05:36:58;;;;;;;;;;;11.20;99.90;;;;;;5053212;28;20365;-76
2021/10/07 05:39:23;;;;;;;;;;;11.20;99.90;;;;;;5052519;28;19936;-75
2021/10/07 05:41:49;;;;;;;;;;;11.20;99.90;;;;;;5035713;28;19953;-75
2021/10/07 05:44:14;;;;;;;;;;;11.20;99.90;;;;;;5040882;28;20358;-74
2021/10/07 05:46:40;;;;;;;;;;;11.20;99.90;;;;;;5038010;28;20004;-76
2021/10/07 05:49:05;;;;;;;;;;;11.20;99.90;;;;;;5063183;28;19930;-75
2021/10/07 05:51:31;;;;;;;;;;;11.20;99.90;;;;;;5055489;28;19936;-74
2021/10/07 05:53:57;;;;;;;;;;;11.10;99.90;;;;;;5062654;28;19913;-74
2021/10/07 05:56:22;;;;;;;;;;;11.00;99.90;;;;;;5074388;28;20278;-76
2021/10/07 05:58:48;;;;;;;;;;;11.00;99.90;;;;;;5076701;28;19939;-76
2021/10/07 06:01:13;;;;;;;;;;;11.10;99.90;;;;;;5059412;28;19908;-76
2021/10/07 06:03:39;;;;;;;;;;;11.10;99.90;;;;;;5055079;28;19920;-74
2021/10/07 06:06:04;;;;;;;;;;;11.10;99.90;;;;;;5054883;28;19905;-76
2021/10/07 06:08:30;;;;;;;;;;;11.20;99.90;;;;;;5077473;28;19921;-76
2021/10/07 06:10:55;;;;;;;;;;;11.20;99.90;;;;;;5067595;28;19904;-77
2021/10/07 06:13:21;;;;;;;;;;;11.20;99.90;;;;;;5058887;28;19905;-76
2021/10/07 06:15:48;;;;;;;;;;;11.20;99.90;;;;;;5058841;28;19905;-76
2021/10/07 06:18:14;;;;;;;;;;;11.20;99.90;;;;;;5058224;28;19924;-76
2021/10/07 06:20:39;;;;;;;;;;;11.30;99.90;;;;;;5057733;28;19905;-77
2021/10/07 06:23:05;;;;;;;;;;;11.40;99.90;;;;;;5057695;28;19917;-76
2021/10/07 06:25:32;;;;;;;;;;;11.50;99.90;;;;;;5058221;28;19906;-75
2021/10/07 06:27:57;;;;;;;;;;;11.60;99.90;;;;;;5062902;28;19929;-76
2021/10/07 06:30:23;;;;;;;;;;;11.70;99.90;;;;;;5056745;28;19916;-76
2021/10/07 06:32:49;;;;;;;;;;;11.70;99.90;;;;;;5061205;28;19923;-76
2021/10/07 06:35:15;;;;;;;;;;;11.90;99.90;;;;;;5054000;28;19924;-71
2021/10/07 06:37:41;;;;;;;;;;;12.00;99.90;;;;;;5052837;28;19917;-75
2021/10/07 06:40:07;;;;;;;;;;;12.10;99.90;;;;;;5048567;28;19958;-75
2021/10/07 06:42:32;;;;;;;;;;;12.20;99.90;;;;;;5048426;28;19913;-75
2021/10/07 06:44:58;;;;;;;;;;;12.20;99.90;;;;;;5037505;28;19913;-76
2021/10/07 06:47:25;;;;;;;;;;;12.20;99.90;;;;;;5037738;28;19913;-76
2021/10/07 06:49:51;;;;;;;;;;;12.30;99.90;;;;;;5038887;28;19917;-76
2021/10/07 06:52:17;;;;;;;;;;;12.30;99.90;;;;;;5033554;28;20015;-76
2021/10/07 06:54:42;;;;;;;;;;;12.30;99.90;;;;;;5045104;28;19963;-75
2021/10/07 06:57:08;;;;;;;;;;;12.20;99.90;;;;;;5051231;28;19935;-76
2021/10/07 06:59:34;;;;;;;;;;;12.20;99.90;;;;;;5043692;28;19913;-76
2021/10/07 07:01:59;;;;;;;;;;;12.20;99.90;;;;;;5047651;28;20340;-75
2021/10/07 07:04:25;;;;;;;;;;;12.20;99.90;;;;;;5051381;28;19913;-76
2021/10/07 07:06:53;;;;;;;;;;;12.20;99.90;;;;;;5032527;28;20023;-75
2021/10/07 07:09:19;;;;;;;;;;;12.20;99.90;;;;;;5037827;28;19917;-76
2021/10/07 07:11:45;;;;;;;;;;;12.20;99.90;;;;;;5035707;28;20267;-76
2021/10/07 07:14:10;;;;;;;;;;;12.20;99.90;;;;;;5041450;28;19917;-75
2021/10/07 07:16:36;;;;;;;;;;;12.20;99.90;;;;;;5038307;28;20007;-76
2021/10/07 07:19:02;;;;;;;;;;;12.20;99.90;;;;;;5036001;28;19913;-73
2021/10/07 07:21:30;;;;;;;;;;;12.10;99.90;;;;;;5036623;28;19913;-75
2021/10/07 07:23:57;;;;;;;;;;;12.20;99.90;;;;;;5043237;28;19920;-78
2021/10/07 07:26:23;;;;;;;;;;;12.20;99.90;;;;;;5040063;28;19943;-76
2021/10/07 07:28:48;;;;;;;;;;;12.20;99.90;;;;;;5035472;28;19921;-76
2021/10/07 07:31:14;;;;;;;;;;;12.20;99.90;;;;;;5042825;28;19912;-76
2021/10/07 07:33:39;;;;;;;;;;;12.30;99.90;;;;;;5045900;28;19920;-75
2021/10/07 07:36:05;;;;;;;;;;;12.30;99.90;;;;;;5037181;28;19952;-76
2021/10/07 07:38:30;;;;;;;;;;;12.30;99.90;;;;;;5035136;28;19936;-76
2021/10/07 07:40:57;;;;;;;;;;;12.20;99.90;;;;;;5035387;28;19944;-76
2021/10/07 07:43:23;;;;;;;;;;;12.20;99.90;;;;;;5043110;28;19935;-76
2021/10/07 07:45:49;;;;;;;;;;;12.20;99.90;;;;;;5056502;28;19999;-76
2021/10/07 07:48:15;;;;;;;;;;;12.30;99.90;;;;;;5051017;28;20366;-76
2021/10/07 07:50:41;;;;;;;;;;;12.30;99.90;;;;;;5034750;28;19917;-76
2021/10/07 07:53:06;;;;;;;;;;;12.40;99.90;;;;;;5034782;28;19952;-75
2021/10/07 07:55:32;;;;;;;;;;;12.40;99.90;;;;;;5035009;28;20008;-76
2021/10/07 07:57:58;;;;;;;;;;;12.50;99.90;;;;;;5035972;28;19909;-76
2021/10/07 08:00:24;;;;;;;;;;;12.50;99.90;;;;;;5035948;28;19913;-76
2021/10/07 08:02:49;;;;;;;;;;;12.60;99.90;;;;;;5052750;28;19931;-76
2021/10/07 08:05:15;;;;;;;;;;;12.70;99.90;;;;;;5051243;28;19912;-76
2021/10/07 08:07:41;;;;;;;;;;;12.80;99.90;;;;;;5053226;28;20000;-76
2021/10/07 08:10:07;;;;;;;;;;;12.90;99.90;;;;;;5040247;28;19924;-76
2021/10/07 08:12:35;;;;;;;;;;;13.00;99.90;;;;;;5044043;28;19909;-76
2021/10/07 08:15:04;;;;;;;;;;;13.10;99.90;;;;;;5035564;28;19917;-76
2021/10/07 08:17:30;;;;;;;;;;;13.20;99.90;;;;;;5034404;28;19909;-75
2021/10/07 08:19:56;;;;;;;;;;;13.30;99.90;;;;;;5049800;28;19913;-75
2021/10/07 08:22:23;;;;;;;;;;;13.40;99.90;;;;;;5039277;28;20373;-76
2021/10/07 08:24:48;;;;;;;;;;;13.60;99.90;;;;;;5033808;28;20000;-75
2021/10/07 08:27:15;;;;;;;;;;;13.80;99.90;;;;;;5034619;28;19916;-75
2021/10/07 08:29:41;;;;;;;;;;;14.00;99.90;;;;;;5044320;28;20011;-75
2021/10/07 08:32:07;;;;;;;;;;;14.30;99.90;;;;;;5036344;28;20309;-76
2021/10/07 08:34:32;;;;;;;;;;;14.40;99.90;;;;;;5044584;28;19909;-75
2021/10/07 08:36:58;;;;;;;;;;;14.70;99.90;;;;;;5035138;28;19920;-75
2021/10/07 08:39:25;;;;;;;;;;;14.90;99.90;;;;;;5034764;28;19921;-75
2021/10/07 08:41:51;;;;;;;;;;;15.00;99.90;;;;;;5039143;28;20357;-75
2021/10/07 08:44:18;;;;;;;;;;;15.10;99.90;;;;;;5034808;28;19920;-77
2021/10/07 08:46:47;;;;;;;;;;;15.20;99.90;;;;;;5042359;28;19920;-76
2021/10/07 08:49:14;;;;;;;;;;;15.30;99.90;;;;;;5044303;28;19923;-75
2021/10/07 08:51:40;;;;;;;;;;;15.30;99.90;;;;;;5054938;28;19909;-75
2021/10/07 08:54:05;;;;;;;;;;;15.40;99.90;;;;;;5051329;28;20753;-75
2021/10/07 08:56:31;;;;;;;;;;;15.60;99.90;;;;;;5042706;28;19913;-74
2021/10/07 08:58:59;;;;;;;;;;;15.70;99.90;;;;;;5054896;28;20280;-75
2021/10/07 09:01:34;;;;;;;;;;;15.70;99.90;;;;;;5045149;28;19913;-76
2021/10/07 09:03:59;;;;;;;;;;;15.70;99.90;;;;;;5040537;28;19913;-76
2021/10/07 09:06:26;;;;;;;;;;;15.80;99.90;;;;;;5038280;28;20397;-76
2021/10/07 09:08:53;;;;;;;;;;;15.80;99.90;;;;;;5050148;28;19913;-76
2021/10/07 09:11:28;;;;;;;;;;;15.80;99.90;;;;;;5038060;28;20270;-75
2021/10/07 09:14:00;;;;;;;;;;;15.70;99.90;;;;;;5034632;28;19913;-75
2021/10/07 09:16:32;;;;;;;;;;;15.80;99.90;;;;;;5034438;28;19916;-77
2021/10/07 09:19:18;;;;;;;;;;;15.90;99.90;;;;;;5038404;28;19954;-75
2021/10/07 09:21:45;;;;;;;;;;;15.90;99.90;;;;;;5059378;28;20409;-76
2021/10/07 09:24:27;;;;;;;;;;;16.10;99.90;;;;;;5044670;28;19924;-75
2021/10/07 09:26:53;;;;;;;;;;;16.20;99.90;;;;;;5046700;28;20336;-75
2021/10/07 09:29:30;;;;;;;;;;;16.30;99.90;;;;;;5033611;28;19921;-75
2021/10/07 09:31:55;;;;;;;;;;;16.40;99.90;;;;;;5035724;28;20358;-75
2021/10/07 09:34:35;;;;;;;;;;;16.40;99.90;;;;;;5052507;28;20201;-75
2021/10/07 09:37:01;;;;;;;;;;;16.50;99.90;;;;;;5043341;28;19968;-75
2021/10/07 09:39:31;;;;;;;;;;;16.60;99.90;;;;;;5034168;28;19940;-76
2021/10/07 09:42:04;;;;;;;;;;;16.70;99.90;;;;;;5032772;28;19952;-76
2021/10/07 09:44:29;;;;;;;;;;;16.80;99.90;;;;;;5033212;28;19963;-75
2021/10/07 09:46:55;;;;;;;;;;;16.90;99.90;;;;;;5036183;28;19913;-76
2021/10/07 09:49:22;;;;;;;;;;;17.00;99.90;;;;;;5037025;28;19917;-76
2021/10/07 09:51:50;;;;;;;;;;;16.90;99.90;;;;;;5048974;28;19919;-76
2021/10/07 09:54:19;;;;;;;;;;;16.90;99.90;;;;;;5052997;28;20257;-76
2021/10/07 09:56:55;;;;;;;;;;;16.90;99.90;;;;;;5037815;28;20419;-76
2021/10/07 09:59:21;;;;;;;;;;;17.00;99.90;;;;;;5053288;28;19912;-76
2021/10/07 10:01:47;;;;;;;;;;;17.20;99.90;;;;;;5053528;28;19912;-75
2021/10/07 10:04:13;;;;;;;;;;;17.30;99.90;;;;;;5047358;28;19913;-75
2021/10/07 10:06:39;;;;;;;;;;;17.20;99.90;;;;;;5037579;28;19913;-75
2021/10/07 10:09:05;;;;;;;;;;;17.30;99.90;;;;;;5044792;28;19924;-74
2021/10/07 10:11:30;;;;;;;;;;;17.20;99.90;;;;;;5034128;28;20369;-74
2021/10/07 10:13:56;;;;;;;;;;;17.10;99.90;;;;;;5047272;28;19920;-76
2021/10/07 10:16:21;;;;;;;;;;;17.00;99.90;;;;;;5061359;28;19913;-76
2021/10/07 10:18:54;;;;;;;;;;;17.00;99.90;;;;;;5058238;28;19935;-76
2021/10/07 10:21:21;;;;;;;;;;;17.00;99.90;;;;;;5053360;28;19909;-75
2021/10/07 10:23:47;;;;;;;;;;;16.90;99.90;;;;;;5055700;28;19897;-77
2021/10/07 10:26:13;;;;;;;;;;;16.90;99.90;;;;;;5064960;28;19908;-77
2021/10/07 10:28:39;;;;;;;;;;;16.90;99.90;;;;;;5063143;28;19905;-77
2021/10/07 10:31:24;;;;;;;;;;;16.90;99.90;;;;;;5059096;28;19921;-75
2021/10/07 10:33:59;;;;;;;;;;;16.90;99.90;;;;;;5042623;28;19992;-75
2021/10/07 10:36:25;;;;;;;;;;;17.00;99.90;;;;;;5056712;28;19917;-75
2021/10/07 10:38:58;;;;;;;;;;;17.10;99.90;;;;;;5069643;28;19927;-76
2021/10/07 10:41:41;;;;;;;;;;;17.10;99.90;;;;;;5078013;28;19964;-77
2021/10/07 10:44:25;;;;;;;;;;;17.20;99.90;;;;;;5059756;28;19924;-78
2021/10/07 10:46:57;;;;;;;;;;;17.30;99.90;;;;;;5057917;28;19905;-75
2021/10/07 10:49:34;;;;;;;;;;;17.20;99.90;;;;;;5062322;28;19936;-76
2021/10/07 10:52:00;;;;;;;;;;;17.20;99.90;;;;;;5062404;28;19924;-75
2021/10/07 10:54:29;;;;;;;;;;;17.20;99.90;;;;;;5062053;28;19931;-76
2021/10/07 10:56:57;;;;;;;;;;;17.30;99.90;;;;;;5068556;28;20419;-76
2021/10/07 10:59:23;;;;;;;;;;;17.30;99.90;;;;;;5081005;28;19964;-76
2021/10/07 11:02:07;;;;;;;;;;;17.30;99.90;;;;;;5061695;28;19897;-76
2021/10/07 11:04:46;;;;;;;;;;;17.30;99.90;;;;;;5063390;28;19960;-77
2021/10/07 11:07:20;;;;;;;;;;;17.30;99.90;;;;;;5069583;28;19915;-77
2021/10/07 11:10:07;;;;;;;;;;;17.40;99.90;;;;;;5081449;28;19916;-76
2021/10/07 11:12:40;;;;;;;;;;;17.40;99.90;;;;;;5076157;28;19932;-75
2021/10/07 11:15:06;;;;;;;;;;;17.50;99.90;;;;;;5078005;28;19989;-75
2021/10/07 11:17:32;;;;;;;;;;;17.50;99.90;;;;;;5064944;28;19901;-77
2021/10/07 11:19:58;;;;;;;;;;;17.60;99.90;;;;;;5057659;28;19923;-73
2021/10/07 11:22:25;;;;;;;;;;;17.70;99.90;;;;;;5041192;28;20281;-76
2021/10/07 11:24:51;;;;;;;;;;;17.80;99.90;;;;;;5041393;28;20373;-76
2021/10/07 11:27:37;;;;;;;;;;;17.90;99.90;;;;;;5041523;28;19920;-76
2021/10/07 11:30:04;;;;;;;;;;;17.90;99.90;;;;;;5039154;28;19959;-76
2021/10/07 11:32:30;;;;;;;;;;;17.80;99.90;;;;;;5039743;28;19917;-77
2021/10/07 11:35:06;;;;;;;;;;;17.90;99.90;;;;;;5055106;28;20285;-77
2021/10/07 11:37:51;;;;;;;;;;;17.80;99.90;;;;;;5038018;28;20011;-76
2021/10/07 11:40:27;;;;;;;;;;;17.80;99.90;;;;;;5043744;28;19913;-76
2021/10/07 11:43:13;;;;;;;;;;;17.80;99.90;;;;;;5039929;28;20352;-76
2021/10/07 11:45:40;;;;;;;;;;;17.80;99.90;;;;;;5037528;28;20004;-76
2021/10/07 11:48:09;;;;;;;;;;;17.90;99.90;;;;;;5038708;28;19967;-75
2021/10/07 11:50:37;;;;;;;;;;;17.90;99.90;;;;;;5058033;28;20301;-76
2021/10/07 11:53:03;;;;;;;;;;;17.90;99.90;;;;;;5036035;28;19953;-76
2021/10/07 11:55:28;;;;;;;;;;;17.80;99.90;;;;;;5037963;28;19914;-75
2021/10/07 11:57:58;;;;;;;;;;;17.80;99.90;;;;;;5036371;28;20389;-75
2021/10/07 12:00:35;;;;;;;;;;;17.80;99.90;;;;;;5046761;28;19963;-77
2021/10/07 12:03:08;;;;;;;;;;;17.70;99.90;;;;;;5036209;28;20434;-76
2021/10/07 12:05:34;;;;;;;;;;;17.70;99.90;;;;;;5038438;28;19913;-76
2021/10/07 12:08:03;;;;;;;;;;;17.60;99.90;;;;;;5036377;28;19917;-77
2021/10/07 12:10:36;;;;;;;;;;;17.60;99.90;;;;;;5051520;28;19917;-75
2021/10/07 12:13:10;;;;;;;;;;;17.60;99.90;;;;;;5059162;28;19913;-76
2021/10/07 12:15:39;;;;;;;;;;;17.60;99.90;;;;;;5056181;28;19948;-75
2021/10/07 12:18:05;;;;;;;;;;;17.70;99.90;;;;;;5049622;28;19913;-75
2021/10/07 12:20:31;;;;;;;;;;;17.70;99.90;;;;;;5033723;28;19920;-75
2021/10/07 12:23:01;;;;;;;;;;;17.70;99.90;;;;;;5034560;28;19913;-75
2021/10/07 12:25:26;;;;;;;;;;;17.80;99.90;;;;;;5041691;28;19959;-75
2021/10/07 12:27:59;;;;;;;;;;;17.80;99.90;;;;;;5049944;28;19917;-75
2021/10/07 12:30:26;;;;;;;;;;;17.60;99.90;;;;;;5051948;28;20297;-76
2021/10/07 12:33:11;;;;;;;;;;;17.50;99.90;;;;;;5050174;28;19917;-75
2021/10/07 12:35:36;;;;;;;;;;;17.40;99.90;;;;;;5036551;28;19940;-76
2021/10/07 12:38:02;;;;;;;;;;;17.50;99.90;;;;;;5055630;28;19913;-76
2021/10/07 12:40:28;;;;;;;;;;;17.60;99.90;;;;;;5054645;28;19913;-76
2021/10/07 12:42:53;;;;;;;;;;;17.60;99.90;;;;;;5033788;28;20047;-76
2021/10/07 12:45:19;;;;;;;;;;;17.70;99.90;;;;;;5034636;28;20401;-76
2021/10/07 12:47:44;;;;;;;;;;;17.60;99.90;;;;;;5035218;28;19921;-76
2021/10/07 12:50:14;;;;;;;;;;;17.60;99.90;;;;;;5034934;28;19920;-76
2021/10/07 12:52:43;;;;;;;;;;;17.60;99.90;;;;;;5034870;28;19918;-76
2021/10/07 12:55:12;;;;;;;;;;;17.70;99.90;;;;;;5038398;28;19999;-77
2021/10/07 12:57:48;;;;;;;;;;;17.80;99.90;;;;;;5065526;28;19966;-77
2021/10/07 13:00:25;;;;;;;;;;;18.00;99.90;;;;;;5034948;28;19913;-77
2021/10/07 13:02:51;;;;;;;;;;;18.00;99.90;;;;;;5034023;28;19988;-76
2021/10/07 13:05:18;;;;;;;;;;;18.10;99.90;;;;;;5034949;28;20347;-76
2021/10/07 13:07:45;;;;;;;;;;;18.20;99.90;;;;;;5033303;28;19914;-76
2021/10/07 13:10:11;;;;;;;;;;;18.30;99.90;;;;;;5035018;28;19917;-76
2021/10/07 13:12:37;;;;;;;;;;;18.40;99.90;;;;;;5035501;28;20057;-76
2021/10/07 13:15:02;;;;;;;;;;;18.50;99.90;;;;;;5035164;28;19920;-77
2021/10/07 13:17:28;;;;;;;;;;;18.50;99.90;;;;;;5034471;28;19921;-76
2021/10/07 13:19:53;;;;;;;;;;;18.50;99.90;;;;;;5033771;28;19936;-76
2021/10/07 13:22:19;;;;;;;;;;;18.50;99.90;;;;;;5048692;28;20025;-76
2021/10/07 13:24:44;;;;;;;;;;;18.60;99.90;;;;;;5040706;28;20341;-76
2021/10/07 13:27:11;;;;;;;;;;;18.60;99.90;;;;;;5052571;28;19920;-76
2021/10/07 13:29:37;;;;;;;;;;;18.60;99.90;;;;;;5054720;28;19947;-76
2021/10/07 13:32:03;;;;;;;;;;;18.50;99.90;;;;;;5037423;28;19952;-76
2021/10/07 13:34:29;;;;;;;;;;;18.40;99.90;;;;;;5033334;28;19936;-76
2021/10/07 13:36:54;;;;;;;;;;;18.40;99.90;;;;;;5034183;28;19996;-76
2021/10/07 13:39:20;;;;;;;;;;;18.50;99.90;;;;;;5032189;28;19917;-76
2021/10/07 13:41:46;;;;;;;;;;;18.60;99.90;;;;;;5044065;28;19916;-77
2021/10/07 13:44:11;;;;;;;;;;;18.50;99.90;;;;;;5055373;28;20312;-76
2021/10/07 13:46:37;;;;;;;;;;;18.50;99.90;;;;;;5049882;28;19917;-76
2021/10/07 13:49:03;;;;;;;;;;;18.40;99.90;;;;;;5052381;28;20329;-76
2021/10/07 13:51:28;;;;;;;;;;;18.20;99.90;;;;;;5033129;28;20336;-76
2021/10/07 13:53:54;;;;;;;;;;;18.10;99.90;;;;;;5033139;28;19943;-76
2021/10/07 13:56:20;;;;;;;;;;;18.00;99.90;;;;;;5047400;28;20292;-76
2021/10/07 13:58:45;;;;;;;;;;;17.80;99.90;;;;;;5040828;28;19913;-75
2021/10/07 14:01:11;;;;;;;;;;;17.70;99.90;;;;;;5048948;28;19913;-76
2021/10/07 14:03:38;;;;;;;;;;;17.70;99.90;;;;;;5034127;28;19940;-77
2021/10/07 14:06:04;;;;;;;;;;;17.60;99.90;;;;;;5032636;28;19913;-77
2021/10/07 14:08:30;;;;;;;;;;;17.80;99.90;;;;;;5033935;28;19923;-77
2021/10/07 14:10:56;;;;;;;;;;;17.70;99.90;;;;;;5036051;28;19924;-77
2021/10/07 14:13:21;;;;;;;;;;;17.60;99.90;;;;;;5032833;28;19917;-78
2021/10/07 14:15:47;;;;;;;;;;;17.70;99.90;;;;;;5036481;28;20003;-77
2021/10/07 14:18:13;;;;;;;;;;;17.80;99.90;;;;;;5052565;28;19912;-78
2021/10/07 14:20:38;;;;;;;;;;;17.90;99.90;;;;;;5052085;28;19967;-77